sensor_id;sensor_type;location;lat;lon;timestamp;pressure;altitude;pressure_sealevel;temperature;humidity
31337;BME280;22846;42.654;23.314;2023-05-20T00:02:03;94840.06;;;24.20;57.29
31337;BME280;22846;42.654;23.314;2023-05-20T00:04:29;94837.34;;;24.20;57.31
31337;BME280;22846;42.654;23.314;2023-05-20T00:06:54;94833.06;;;24.19;57.16
31337;BME280;22846;42.654;23.314;2023-05-20T00:09:20;94833.06;;;24.19;57.34
31337;BME280;22846;42.654;23.314;2023-05-20T00:11:45;94838.53;;;24.19;57.11
31337;BME280;22846;42.654;23.314;2023-05-20T00:14:11;94832.31;;;24.19;56.89
31337;BME280;22846;42.654;23.314;2023-05-20T00:16:36;94834.25;;;24.18;56.95
31337;BME280;22846;42.654;23.314;2023-05-20T00:19:02;94838.97;;;24.18;56.87
31337;BME280;22846;42.654;23.314;2023-05-20T00:21:27;94836.25;;;24.18;57.31
31337;BME280;22846;42.654;23.314;2023-05-20T00:23:54;94831.97;;;24.17;57.10
31337;BME280;22846;42.654;23.314;2023-05-20T00:26:20;94836.66;;;24.16;57.06
31337;BME280;22846;42.654;23.314;2023-05-20T00:28:46;94833.91;;;24.16;56.93
31337;BME280;22846;42.654;23.314;2023-05-20T00:31:11;94833.16;;;24.16;57.12
31337;BME280;22846;42.654;23.314;2023-05-20T00:33:37;94829.66;;;24.15;57.02
31337;BME280;22846;42.654;23.314;2023-05-20T00:36:02;94821.47;;;24.15;57.37
31337;BME280;22846;42.654;23.314;2023-05-20T00:38:28;94821.47;;;24.15;56.85
31337;BME280;22846;42.654;23.314;2023-05-20T00:40:53;94814.50;;;24.14;57.23
31337;BME280;22846;42.654;23.314;2023-05-20T00:43:19;94813.69;;;24.14;57.37
31337;BME280;22846;42.654;23.314;2023-05-20T00:45:45;94803.56;;;24.14;56.94
31337;BME280;22846;42.654;23.314;2023-05-20T00:48:11;94801.25;;;24.13;56.99
31337;BME280;22846;42.654;23.314;2023-05-20T00:50:38;94807.50;;;24.13;56.95
31337;BME280;22846;42.654;23.314;2023-05-20T00:53:03;94808.25;;;24.14;57.38
31337;BME280;22846;42.654;23.314;2023-05-20T00:55:30;94797.75;;;24.12;56.87
31337;BME280;22846;42.654;23.314;2023-05-20T00:57:55;94794.25;;;24.12;57.22
31337;BME280;22846;42.654;23.314;2023-05-20T01:00:21;94798.97;;;24.11;57.37
31337;BME280;22846;42.654;23.314;2023-05-20T01:02:47;94796.22;;;24.11;57.04
31337;BME280;22846;42.654;23.314;2023-05-20T01:05:13;94786.50;;;24.10;57.33
31337;BME280;22846;42.654;23.314;2023-05-20T01:07:38;94801.34;;;24.09;57.03
31337;BME280;22846;42.654;23.314;2023-05-20T01:10:04;94793.16;;;24.09;57.27
31337;BME280;22846;42.654;23.314;2023-05-20T01:12:36;94793.16;;;24.09;57.25
31337;BME280;22846;42.654;23.314;2023-05-20T01:15:09;94790.84;;;24.08;57.19
31337;BME280;22846;42.654;23.314;2023-05-20T01:17:57;94803.31;;;24.09;57.04
31337;BME280;22846;42.654;23.314;2023-05-20T01:20:25;94813.81;;;24.10;56.97
31337;BME280;22846;42.654;23.314;2023-05-20T01:22:53;94822.44;;;24.09;57.15
31337;BME280;22846;42.654;23.314;2023-05-20T01:25:19;94812.81;;;24.04;57.19
31337;BME280;22846;42.654;23.314;2023-05-20T01:27:45;94820.09;;;24.07;56.88
31337;BME280;22846;42.654;23.314;2023-05-20T01:30:11;94816.63;;;24.07;57.19
31337;BME280;22846;42.654;23.314;2023-05-20T01:32:40;94813.16;;;24.06;57.04
31337;BME280;22846;42.654;23.314;2023-05-20T01:35:07;94810.41;;;24.06;57.11
31337;BME280;22846;42.654;23.314;2023-05-20T01:37:36;94802.22;;;24.06;56.85
31337;BME280;22846;42.654;23.314;2023-05-20T01:40:04;94796.84;;;24.03;56.82
31337;BME280;22846;42.654;23.314;2023-05-20T01:42:31;94794.53;;;24.01;56.80
31337;BME280;22846;42.654;23.314;2023-05-20T01:44:58;94800.69;;;24.05;56.87
31337;BME280;22846;42.654;23.314;2023-05-20T01:47:24;94798.72;;;24.06;57.25
31337;BME280;22846;42.654;23.314;2023-05-20T01:49:49;94793.00;;;24.00;57.11
31337;BME280;22846;42.654;23.314;2023-05-20T01:52:18;94796.41;;;24.04;56.87
31337;BME280;22846;42.654;23.314;2023-05-20T01:54:44;94788.22;;;24.04;57.18
31337;BME280;22846;42.654;23.314;2023-05-20T01:57:16;94790.97;;;24.04;56.78
31337;BME280;22846;42.654;23.314;2023-05-20T01:59:41;94792.16;;;24.03;56.81
31337;BME280;22846;42.654;23.314;2023-05-20T02:02:07;94794.88;;;24.03;57.05
31337;BME280;22846;42.654;23.314;2023-05-20T02:04:32;94794.09;;;24.03;56.90
31337;BME280;22846;42.654;23.314;2023-05-20T02:06:57;94789.41;;;24.03;56.69
31337;BME280;22846;42.654;23.314;2023-05-20T02:09:23;94786.69;;;24.03;56.90
31337;BME280;22846;42.654;23.314;2023-05-20T02:11:48;94791.38;;;24.03;56.91
31337;BME280;22846;42.654;23.314;2023-05-20T02:14:13;94787.88;;;24.02;57.10
31337;BME280;22846;42.654;23.314;2023-05-20T02:16:39;94779.69;;;24.02;57.19
31337;BME280;22846;42.654;23.314;2023-05-20T02:19:05;94787.88;;;24.02;56.72
31337;BME280;22846;42.654;23.314;2023-05-20T02:21:37;94783.72;;;23.98;56.72
31337;BME280;22846;42.654;23.314;2023-05-20T02:24:03;94795.31;;;24.02;57.08
31337;BME280;22846;42.654;23.314;2023-05-20T02:26:29;94794.53;;;24.01;56.71
31337;BME280;22846;42.654;23.314;2023-05-20T02:28:55;94787.53;;;24.00;56.65
31337;BME280;22846;42.654;23.314;2023-05-20T02:31:20;94780.53;;;23.99;57.02
31337;BME280;22846;42.654;23.314;2023-05-20T02:33:46;94780.53;;;23.99;56.70
31337;BME280;22846;42.654;23.314;2023-05-20T02:36:11;94782.09;;;24.00;57.01
31337;BME280;22846;42.654;23.314;2023-05-20T02:38:37;94780.53;;;23.99;56.71
31337;BME280;22846;42.654;23.314;2023-05-20T02:41:02;94775.09;;;23.99;57.09
31337;BME280;22846;42.654;23.314;2023-05-20T02:43:29;94779.00;;;23.98;57.17
31337;BME280;22846;42.654;23.314;2023-05-20T02:45:55;94781.75;;;23.98;56.97
31337;BME280;22846;42.654;23.314;2023-05-20T02:48:21;94783.72;;;23.98;57.16
31337;BME280;22846;42.654;23.314;2023-05-20T02:50:46;94783.72;;;23.98;57.07
31337;BME280;22846;42.654;23.314;2023-05-20T02:53:12;94786.44;;;23.98;56.87
31337;BME280;22846;42.654;23.314;2023-05-20T02:55:39;94782.97;;;23.97;56.85
31337;BME280;22846;42.654;23.314;2023-05-20T02:58:04;94778.69;;;23.96;56.83
31337;BME280;22846;42.654;23.314;2023-05-20T03:00:30;94784.91;;;23.97;56.75
31337;BME280;22846;42.654;23.314;2023-05-20T03:02:56;94780.75;;;23.92;57.14
31337;BME280;22846;42.654;23.314;2023-05-20T03:05:21;94791.56;;;23.96;56.72
31337;BME280;22846;42.654;23.314;2023-05-20T03:07:47;94786.88;;;23.96;57.09
31337;BME280;22846;42.654;23.314;2023-05-20T03:10:13;94793.53;;;23.95;56.82
31337;BME280;22846;42.654;23.314;2023-05-20T03:12:39;94792.34;;;23.96;56.72
31337;BME280;22846;42.654;23.314;2023-05-20T03:15:05;94796.28;;;23.95;56.63
31337;BME280;22846;42.654;23.314;2023-05-20T03:17:30;94799.00;;;23.95;57.12
31337;BME280;22846;42.654;23.314;2023-05-20T03:19:56;94806.41;;;23.95;56.99
31337;BME280;22846;42.654;23.314;2023-05-20T03:22:21;94797.13;;;23.92;57.09
31337;BME280;22846;42.654;23.314;2023-05-20T03:24:46;94809.91;;;23.95;57.04
31337;BME280;22846;42.654;23.314;2023-05-20T03:27:13;94807.19;;;23.95;57.06
31337;BME280;22846;42.654;23.314;2023-05-20T03:29:39;94812.66;;;23.95;56.57
31337;BME280;22846;42.654;23.314;2023-05-20T03:32:04;94814.59;;;23.95;56.86
31337;BME280;22846;42.654;23.314;2023-05-20T03:34:30;94814.59;;;23.95;57.00
31337;BME280;22846;42.654;23.314;2023-05-20T03:36:56;94806.94;;;23.90;56.61
31337;BME280;22846;42.654;23.314;2023-05-20T03:39:21;94814.59;;;23.95;56.61
31337;BME280;22846;42.654;23.314;2023-05-20T03:41:47;94816.56;;;23.94;56.79
31337;BME280;22846;42.654;23.314;2023-05-20T03:44:12;94817.31;;;23.95;56.44
31337;BME280;22846;42.654;23.314;2023-05-20T03:46:37;94820.06;;;23.95;56.57
31337;BME280;22846;42.654;23.314;2023-05-20T03:49:03;94822.78;;;23.95;56.87
31337;BME280;22846;42.654;23.314;2023-05-20T03:51:29;94819.31;;;23.94;56.62
31337;BME280;22846;42.654;23.314;2023-05-20T03:53:55;94823.56;;;23.95;56.61
31337;BME280;22846;42.654;23.314;2023-05-20T03:56:20;94829.03;;;23.95;56.84
31337;BME280;22846;42.654;23.314;2023-05-20T03:58:46;94825.50;;;23.95;56.52
31337;BME280;22846;42.654;23.314;2023-05-20T04:01:12;94820.84;;;23.95;56.59
31337;BME280;22846;42.654;23.314;2023-05-20T04:03:39;94829.03;;;23.95;56.62
31337;BME280;22846;42.654;23.314;2023-05-20T04:06:06;94830.56;;;23.96;56.41
31337;BME280;22846;42.654;23.314;2023-05-20T04:08:31;94829.78;;;23.96;56.87
31337;BME280;22846;42.654;23.314;2023-05-20T04:10:57;94836.03;;;23.96;56.96
31337;BME280;22846;42.654;23.314;2023-05-20T04:13:24;94836.03;;;23.96;56.78
31337;BME280;22846;42.654;23.314;2023-05-20T04:15:50;94836.03;;;23.96;57.00
31337;BME280;22846;42.654;23.314;2023-05-20T04:18:17;94836.78;;;23.97;56.58
31337;BME280;22846;42.654;23.314;2023-05-20T04:20:42;94837.56;;;23.97;56.82
31337;BME280;22846;42.654;23.314;2023-05-20T04:23:09;94839.16;;;23.95;56.48
31337;BME280;22846;42.654;23.314;2023-05-20T04:25:34;94843.03;;;23.97;56.73
31337;BME280;22846;42.654;23.314;2023-05-20T04:28:00;94844.53;;;23.98;56.60
31337;BME280;22846;42.654;23.314;2023-05-20T04:30:25;94839.06;;;23.98;56.37
31337;BME280;22846;42.654;23.314;2023-05-20T04:32:51;94839.84;;;23.99;56.39
31337;BME280;22846;42.654;23.314;2023-05-20T04:35:17;94830.88;;;23.98;56.38
31337;BME280;22846;42.654;23.314;2023-05-20T04:37:43;94834.38;;;23.99;56.47
31337;BME280;22846;42.654;23.314;2023-05-20T04:40:17;94837.13;;;23.99;56.38
31337;BME280;22846;42.654;23.314;2023-05-20T04:42:43;94834.03;;;23.97;56.59
31337;BME280;22846;42.654;23.314;2023-05-20T04:45:09;94842.16;;;24.00;56.54
31337;BME280;22846;42.654;23.314;2023-05-20T04:47:34;94844.88;;;24.00;56.74
31337;BME280;22846;42.654;23.314;2023-05-20T04:50:07;94855.03;;;24.00;56.41
31337;BME280;22846;42.654;23.314;2023-05-20T04:52:38;94858.53;;;24.00;56.78
31337;BME280;22846;42.654;23.314;2023-05-20T04:55:07;94849.13;;;24.01;56.62
31337;BME280;22846;42.654;23.314;2023-05-20T04:57:36;94856.13;;;24.02;56.29
31337;BME280;22846;42.654;23.314;2023-05-20T05:00:10;94849.47;;;24.03;56.34
31337;BME280;22846;42.654;23.314;2023-05-20T05:02:36;94844.47;;;24.02;56.56
31337;BME280;22846;42.654;23.314;2023-05-20T05:05:02;94849.47;;;24.03;56.38
31337;BME280;22846;42.654;23.314;2023-05-20T05:07:27;94846.41;;;24.01;56.58
31337;BME280;22846;42.654;23.314;2023-05-20T05:09:53;94843.69;;;24.01;56.35
31337;BME280;22846;42.654;23.314;2023-05-20T05:12:18;94848.28;;;24.04;56.53
31337;BME280;22846;42.654;23.314;2023-05-20T05:14:44;94849.03;;;24.05;56.17
31337;BME280;22846;42.654;23.314;2023-05-20T05:17:09;94848.28;;;24.04;56.32
31337;BME280;22846;42.654;23.314;2023-05-20T05:19:35;94855.28;;;24.05;56.64
31337;BME280;22846;42.654;23.314;2023-05-20T05:22:00;94849.03;;;24.05;56.24
31337;BME280;22846;42.654;23.314;2023-05-20T05:24:25;94846.66;;;24.07;56.51
31337;BME280;22846;42.654;23.314;2023-05-20T05:26:54;94845.91;;;24.06;56.54
31337;BME280;22846;42.654;23.314;2023-05-20T05:29:20;94845.91;;;24.06;56.30
31337;BME280;22846;42.654;23.314;2023-05-20T05:31:45;94847.41;;;24.07;56.16
31337;BME280;22846;42.654;23.314;2023-05-20T05:34:11;94845.03;;;24.09;56.10
31337;BME280;22846;42.654;23.314;2023-05-20T05:36:38;94835.66;;;24.10;56.61
31337;BME280;22846;42.654;23.314;2023-05-20T05:39:03;94831.38;;;24.09;56.36
31337;BME280;22846;42.654;23.314;2023-05-20T05:41:30;94838.72;;;24.12;55.97
31337;BME280;22846;42.654;23.314;2023-05-20T05:43:55;94836.34;;;24.14;56.12
31337;BME280;22846;42.654;23.314;2023-05-20T05:46:20;94837.53;;;24.13;55.82
31337;BME280;22846;42.654;23.314;2023-05-20T05:48:46;94834.00;;;24.13;55.71
31337;BME280;22846;42.654;23.314;2023-05-20T05:51:14;94838.63;;;24.16;55.92
31337;BME280;22846;42.654;23.314;2023-05-20T05:53:40;94833.91;;;24.16;55.66
31337;BME280;22846;42.654;23.314;2023-05-20T05:56:05;94825.72;;;24.16;54.64
31337;BME280;22846;42.654;23.314;2023-05-20T05:58:31;94832.72;;;24.17;55.10
31337;BME280;22846;42.654;23.314;2023-05-20T06:00:57;94835.44;;;24.17;55.09
31337;BME280;22846;42.654;23.314;2023-05-20T06:03:23;94837.78;;;24.19;55.19
31337;BME280;22846;42.654;23.314;2023-05-20T06:05:48;94829.13;;;24.20;54.82
31337;BME280;22846;42.654;23.314;2023-05-20T06:08:14;94831.88;;;24.20;55.24
31337;BME280;22846;42.654;23.314;2023-05-20T06:10:39;94821.69;;;24.21;54.97
31337;BME280;22846;42.654;23.314;2023-05-20T06:13:05;94822.47;;;24.21;55.09
31337;BME280;22846;42.654;23.314;2023-05-20T06:15:30;94824.03;;;24.22;55.28
31337;BME280;22846;42.654;23.314;2023-05-20T06:17:55;94818.56;;;24.22;55.02
31337;BME280;22846;42.654;23.314;2023-05-20T06:20:21;94811.91;;;24.23;55.25
31337;BME280;22846;42.654;23.314;2023-05-20T06:22:46;94813.41;;;24.24;55.18
31337;BME280;22846;42.654;23.314;2023-05-20T06:25:12;94818.88;;;24.24;55.79
31337;BME280;22846;42.654;23.314;2023-05-20T06:27:38;94818.47;;;24.26;56.15
31337;BME280;22846;42.654;23.314;2023-05-20T06:30:04;94816.47;;;24.26;56.10
31337;BME280;22846;42.654;23.314;2023-05-20T06:32:30;94807.09;;;24.27;56.22
31337;BME280;22846;42.654;23.314;2023-05-20T06:34:55;94801.19;;;24.29;56.30
31337;BME280;22846;42.654;23.314;2023-05-20T06:37:20;94803.50;;;24.30;55.89
31337;BME280;22846;42.654;23.314;2023-05-20T06:39:49;94800.00;;;24.30;56.79
31337;BME280;22846;42.654;23.314;2023-05-20T06:42:18;94792.25;;;24.28;56.15
31337;BME280;22846;42.654;23.314;2023-05-20T06:44:44;94790.28;;;24.29;55.42
31337;BME280;22846;42.654;23.314;2023-05-20T06:47:10;94789.06;;;24.30;55.95
31337;BME280;22846;42.654;23.314;2023-05-20T06:49:35;94791.06;;;24.29;55.79
31337;BME280;22846;42.654;23.314;2023-05-20T06:52:01;94794.53;;;24.30;55.74
31337;BME280;22846;42.654;23.314;2023-05-20T06:54:26;94791.38;;;24.31;54.90
31337;BME280;22846;42.654;23.314;2023-05-20T06:56:52;94793.25;;;24.34;55.00
31337;BME280;22846;42.654;23.314;2023-05-20T06:59:17;94801.78;;;24.36;55.01
31337;BME280;22846;42.654;23.314;2023-05-20T07:01:43;94808.78;;;24.37;55.21
31337;BME280;22846;42.654;23.314;2023-05-20T07:04:08;94809.13;;;24.39;55.21
31337;BME280;22846;42.654;23.314;2023-05-20T07:06:33;94798.19;;;24.39;54.67
31337;BME280;22846;42.654;23.314;2023-05-20T07:08:59;94807.13;;;24.40;54.63
31337;BME280;22846;42.654;23.314;2023-05-20T07:11:25;94792.72;;;24.39;54.17
31337;BME280;22846;42.654;23.314;2023-05-20T07:13:50;94799.72;;;24.40;54.13
31337;BME280;22846;42.654;23.314;2023-05-20T07:16:17;94794.25;;;24.40;54.03
31337;BME280;22846;42.654;23.314;2023-05-20T07:18:43;94793.91;;;24.38;53.93
31337;BME280;22846;42.654;23.314;2023-05-20T07:21:08;94796.22;;;24.40;53.74
31337;BME280;22846;42.654;23.314;2023-05-20T07:23:33;94794.25;;;24.40;53.54
31337;BME280;22846;42.654;23.314;2023-05-20T07:25:59;94785.28;;;24.40;53.28
31337;BME280;22846;42.654;23.314;2023-05-20T07:28:24;94786.06;;;24.40;54.02
31337;BME280;22846;42.654;23.314;2023-05-20T07:30:49;94782.09;;;24.41;53.80
31337;BME280;22846;42.654;23.314;2023-05-20T07:33:16;94780.91;;;24.42;54.08
31337;BME280;22846;42.654;23.314;2023-05-20T07:35:42;94781.69;;;24.43;54.33
31337;BME280;22846;42.654;23.314;2023-05-20T07:38:10;94790.41;;;24.38;53.70
31337;BME280;22846;42.654;23.314;2023-05-20T07:40:36;94785.22;;;24.43;54.18
31337;BME280;22846;42.654;23.314;2023-05-20T07:43:03;94792.63;;;24.43;53.78
31337;BME280;22846;42.654;23.314;2023-05-20T07:45:28;94795.72;;;24.45;52.89
31337;BME280;22846;42.654;23.314;2023-05-20T07:47:53;94794.50;;;24.46;51.86
31337;BME280;22846;42.654;23.314;2023-05-20T07:50:19;94788.72;;;24.44;51.50
31337;BME280;22846;42.654;23.314;2023-05-20T07:52:44;94776.44;;;24.36;51.50
31337;BME280;22846;42.654;23.314;2023-05-20T07:55:10;94787.09;;;24.46;48.78
31337;BME280;22846;42.654;23.314;2023-05-20T07:57:35;94790.16;;;24.48;49.47
31337;BME280;22846;42.654;23.314;2023-05-20T08:00:00;94787.16;;;24.43;44.33
31337;BME280;22846;42.654;23.314;2023-05-20T08:02:26;94791.84;;;24.42;45.16
31337;BME280;22846;42.654;23.314;2023-05-20T08:04:51;94780.16;;;24.42;48.99
31337;BME280;22846;42.654;23.314;2023-05-20T08:07:17;94788.13;;;24.36;47.91
31337;BME280;22846;42.654;23.314;2023-05-20T08:09:42;94777.28;;;24.33;45.91
31337;BME280;22846;42.654;23.314;2023-05-20T08:12:07;94783.72;;;24.26;43.24
31337;BME280;22846;42.654;23.314;2023-05-20T08:14:33;94777.25;;;24.20;42.25
31337;BME280;22846;42.654;23.314;2023-05-20T08:16:59;94778.53;;;24.16;41.90
31337;BME280;22846;42.654;23.314;2023-05-20T08:19:24;94773.94;;;24.13;41.13
31337;BME280;22846;42.654;23.314;2023-05-20T08:21:49;94783.16;;;24.19;42.83
31337;BME280;22846;42.654;23.314;2023-05-20T08:24:15;94777.13;;;24.11;42.14
31337;BME280;22846;42.654;23.314;2023-05-20T08:26:40;94770.56;;;24.09;42.92
31337;BME280;22846;42.654;23.314;2023-05-20T08:29:06;94773.84;;;24.16;43.56
31337;BME280;22846;42.654;23.314;2023-05-20T08:31:32;94776.47;;;24.20;42.91
31337;BME280;22846;42.654;23.314;2023-05-20T08:33:58;94771.34;;;24.22;44.66
31337;BME280;22846;42.654;23.314;2023-05-20T08:36:23;94759.13;;;24.26;43.96
31337;BME280;22846;42.654;23.314;2023-05-20T08:38:50;94761.09;;;24.26;42.81
31337;BME280;22846;42.654;23.314;2023-05-20T08:41:16;94770.72;;;24.30;43.21
31337;BME280;22846;42.654;23.314;2023-05-20T08:43:42;94769.44;;;24.35;43.68
31337;BME280;22846;42.654;23.314;2023-05-20T08:46:08;94762.34;;;24.37;43.84
31337;BME280;22846;42.654;23.314;2023-05-20T08:48:34;94758.06;;;24.36;44.65
31337;BME280;22846;42.654;23.314;2023-05-20T08:51:02;94759.50;;;24.41;46.80
31337;BME280;22846;42.654;23.314;2023-05-20T08:53:27;94764.22;;;24.40;48.86
31337;BME280;22846;42.654;23.314;2023-05-20T08:55:55;94770.69;;;24.46;49.87
31337;BME280;22846;42.654;23.314;2023-05-20T08:58:22;94771.03;;;24.48;50.04
31337;BME280;22846;42.654;23.314;2023-05-20T09:00:50;94777.69;;;24.47;50.70
31337;BME280;22846;42.654;23.314;2023-05-20T09:03:18;94772.88;;;24.51;51.01
31337;BME280;22846;42.654;23.314;2023-05-20T09:05:45;94763.16;;;24.50;50.60
31337;BME280;22846;42.654;23.314;2023-05-20T09:08:11;94754.09;;;24.53;50.24
31337;BME280;22846;42.654;23.314;2023-05-20T09:10:38;94753.22;;;24.56;50.38
31337;BME280;22846;42.654;23.314;2023-05-20T09:13:05;94751.59;;;24.59;51.15
31337;BME280;22846;42.654;23.314;2023-05-20T09:15:31;94745.38;;;24.58;50.96
31337;BME280;22846;42.654;23.314;2023-05-20T09:18:01;94750.50;;;24.56;51.16
31337;BME280;22846;42.654;23.314;2023-05-20T09:20:27;94745.25;;;24.62;50.88
31337;BME280;22846;42.654;23.314;2023-05-20T09:22:58;94752.25;;;24.63;51.05
31337;BME280;22846;42.654;23.314;2023-05-20T09:25:23;94748.31;;;24.64;51.14
31337;BME280;22846;42.654;23.314;2023-05-20T09:27:49;94738.91;;;24.65;51.25
31337;BME280;22846;42.654;23.314;2023-05-20T09:30:18;94732.69;;;24.64;51.54
31337;BME280;22846;42.654;23.314;2023-05-20T09:32:43;94739.25;;;24.67;51.16
31337;BME280;22846;42.654;23.314;2023-05-20T09:35:12;94731.03;;;24.67;51.40
31337;BME280;22846;42.654;23.314;2023-05-20T09:37:41;94731.38;;;24.69;52.12
31337;BME280;22846;42.654;23.314;2023-05-20T09:40:07;94739.13;;;24.70;51.92
31337;BME280;22846;42.654;23.314;2023-05-20T09:42:43;94737.94;;;24.71;51.81
31337;BME280;22846;42.654;23.314;2023-05-20T09:45:11;94738.28;;;24.73;51.73
31337;BME280;22846;42.654;23.314;2023-05-20T09:47:40;94731.28;;;24.72;51.69
31337;BME280;22846;42.654;23.314;2023-05-20T09:50:07;94731.59;;;24.74;51.78
31337;BME280;22846;42.654;23.314;2023-05-20T09:52:34;94726.16;;;24.74;51.76
31337;BME280;22846;42.654;23.314;2023-05-20T09:55:01;94722.22;;;24.75;52.06
31337;BME280;22846;42.654;23.314;2023-05-20T09:57:32;94720.22;;;24.76;52.03
31337;BME280;22846;42.654;23.314;2023-05-20T09:59:58;94720.22;;;24.76;52.34
31337;BME280;22846;42.654;23.314;2023-05-20T10:02:23;94720.22;;;24.76;52.01
31337;BME280;22846;42.654;23.314;2023-05-20T10:04:50;94716.31;;;24.77;52.08
31337;BME280;22846;42.654;23.314;2023-05-20T10:07:54;94707.31;;;24.76;52.11
31337;BME280;22846;42.654;23.314;2023-05-20T10:13:06;94688.97;;;24.77;52.55
31337;BME280;22846;42.654;23.314;2023-05-20T10:18:57;94691.69;;;24.77;52.15
31337;BME280;22846;42.654;23.314;2023-05-20T10:21:25;94697.91;;;24.77;52.49
31337;BME280;22846;42.654;23.314;2023-05-20T10:23:51;94685.44;;;24.76;52.03
31337;BME280;22846;42.654;23.314;2023-05-20T10:26:17;94677.25;;;24.76;52.30
31337;BME280;22846;42.654;23.314;2023-05-20T10:28:44;94684.25;;;24.77;52.31
31337;BME280;22846;42.654;23.314;2023-05-20T10:31:19;94675.31;;;24.77;52.37
31337;BME280;22846;42.654;23.314;2023-05-20T10:33:45;94676.06;;;24.77;52.56
31337;BME280;22846;42.654;23.314;2023-05-20T10:36:27;94673.00;;;24.75;52.65
31337;BME280;22846;42.654;23.314;2023-05-20T10:38:56;94679.56;;;24.77;52.35
31337;BME280;22846;42.654;23.314;2023-05-20T10:41:27;94666.66;;;24.78;52.59
31337;BME280;22846;42.654;23.314;2023-05-20T10:44:04;94663.91;;;24.78;52.61
31337;BME280;22846;42.654;23.314;2023-05-20T10:46:30;94647.09;;;24.79;52.25
31337;BME280;22846;42.654;23.314;2023-05-20T10:48:56;94646.31;;;24.79;52.39
31337;BME280;22846;42.654;23.314;2023-05-20T10:51:22;94640.84;;;24.79;52.12
31337;BME280;22846;42.654;23.314;2023-05-20T10:53:51;94649.06;;;24.79;52.42
31337;BME280;22846;42.654;23.314;2023-05-20T10:56:22;94653.31;;;24.80;52.20
31337;BME280;22846;42.654;23.314;2023-05-20T10:58:49;94637.66;;;24.80;52.17
31337;BME280;22846;42.654;23.314;2023-05-20T11:01:16;94650.25;;;24.78;52.40
31337;BME280;22846;42.654;23.314;2023-05-20T11:03:43;94638.44;;;24.81;52.49
31337;BME280;22846;42.654;23.314;2023-05-20T11:06:16;94643.13;;;24.80;52.20
31337;BME280;22846;42.654;23.314;2023-05-20T11:08:42;94633.84;;;24.78;52.44
31337;BME280;22846;42.654;23.314;2023-05-20T11:11:09;94639.19;;;24.81;52.16
31337;BME280;22846;42.654;23.314;2023-05-20T11:13:35;94641.19;;;24.81;52.57
31337;BME280;22846;42.654;23.314;2023-05-20T11:16:00;94628.28;;;24.81;52.29
31337;BME280;22846;42.654;23.314;2023-05-20T11:18:27;94632.53;;;24.82;52.24
31337;BME280;22846;42.654;23.314;2023-05-20T11:20:59;94613.06;;;24.80;52.56
31337;BME280;22846;42.654;23.314;2023-05-20T11:23:27;94622.06;;;24.81;52.04
31337;BME280;22846;42.654;23.314;2023-05-20T11:25:55;94615.81;;;24.80;52.19
31337;BME280;22846;42.654;23.314;2023-05-20T11:28:21;94621.28;;;24.80;52.35
31337;BME280;22846;42.654;23.314;2023-05-20T11:30:48;94610.34;;;24.80;52.39
31337;BME280;22846;42.654;23.314;2023-05-20T11:33:15;94609.59;;;24.80;52.33
31337;BME280;22846;42.654;23.314;2023-05-20T11:38:10;94604.13;;;24.80;52.38
31337;BME280;22846;42.654;23.314;2023-05-20T11:40:36;94589.03;;;24.76;52.30
31337;BME280;22846;42.654;23.314;2023-05-20T11:43:02;94601.06;;;24.78;52.31
31337;BME280;22846;42.654;23.314;2023-05-20T11:45:41;94598.09;;;24.73;52.42
31337;BME280;22846;42.654;23.314;2023-05-20T11:48:08;94602.25;;;24.77;52.17
31337;BME280;22846;42.654;23.314;2023-05-20T11:50:35;94600.72;;;24.76;52.63
31337;BME280;22846;42.654;23.314;2023-05-20T11:53:04;94598.00;;;24.76;52.54
31337;BME280;22846;42.654;23.314;2023-05-20T11:55:34;94573.84;;;24.75;52.59
31337;BME280;22846;42.654;23.314;2023-05-20T11:58:00;94591.03;;;24.75;52.60
31337;BME280;22846;42.654;23.314;2023-05-20T12:00:26;94577.03;;;24.73;52.55
31337;BME280;22846;42.654;23.314;2023-05-20T12:02:52;94577.91;;;24.70;52.22
31337;BME280;22846;42.654;23.314;2023-05-20T12:05:17;94579.75;;;24.73;52.49
31337;BME280;22846;42.654;23.314;2023-05-20T12:07:43;94582.50;;;24.73;52.42
31337;BME280;22846;42.654;23.314;2023-05-20T12:10:09;94582.91;;;24.72;52.58
31337;BME280;22846;42.654;23.314;2023-05-20T12:12:35;94577.44;;;24.72;52.50
31337;BME280;22846;42.654;23.314;2023-05-20T12:15:04;94576.38;;;24.69;52.47
31337;BME280;22846;42.654;23.314;2023-05-20T12:17:33;94581.81;;;24.69;52.64
31337;BME280;22846;42.654;23.314;2023-05-20T12:19:59;94586.53;;;24.69;52.43
31337;BME280;22846;42.654;23.314;2023-05-20T12:22:24;94588.50;;;24.68;52.55
31337;BME280;22846;42.654;23.314;2023-05-20T12:24:50;94589.41;;;24.65;52.87
31337;BME280;22846;42.654;23.314;2023-05-20T12:27:15;94594.41;;;24.67;52.72
31337;BME280;22846;42.654;23.314;2023-05-20T12:29:41;94612.00;;;24.66;52.58
31337;BME280;22846;42.654;23.314;2023-05-20T12:32:07;94624.13;;;24.65;52.62
31337;BME280;22846;42.654;23.314;2023-05-20T12:34:32;94634.66;;;24.66;52.70
31337;BME280;22846;42.654;23.314;2023-05-20T12:36:58;94638.59;;;24.65;52.31
31337;BME280;22846;42.654;23.314;2023-05-20T12:39:23;94647.19;;;24.64;52.64
31337;BME280;22846;42.654;23.314;2023-05-20T12:41:48;94644.91;;;24.62;52.84
31337;BME280;22846;42.654;23.314;2023-05-20T12:44:14;94641.44;;;24.62;52.68
31337;BME280;22846;42.654;23.314;2023-05-20T12:46:39;94650.81;;;24.61;52.57
31337;BME280;22846;42.654;23.314;2023-05-20T12:49:05;94639.91;;;24.61;52.57
31337;BME280;22846;42.654;23.314;2023-05-20T12:51:30;94646.56;;;24.60;52.44
31337;BME280;22846;42.654;23.314;2023-05-20T12:53:56;94633.00;;;24.56;52.75
31337;BME280;22846;42.654;23.314;2023-05-20T12:56:21;94632.13;;;24.59;52.47